sensor_id;sensor_type;location;lat;lon;timestamp;temperature;humidity
18139;DHT22;9195;53.176;9.486;2022-12-29T00:01:51;8.40;99.90
18139;DHT22;9195;53.176;9.486;2022-12-29T00:04:18;8.50;99.90
18139;DHT22;9195;53.176;9.486;2022-12-29T00:06:44;8.50;99.90
18139;DHT22;9195;53.176;9.486;2022-12-29T00:09:13;8.50;99.90
18139;DHT22;9195;53.176;9.486;2022-12-29T00:11:40;8.60;99.90
18139;DHT22;9195;53.176;9.486;2022-12-29T00:14:08;8.60;99.90
18139;DHT22;9195;53.176;9.486;2022-12-29T00:16:52;8.70;99.90
18139;DHT22;9195;53.176;9.486;2022-12-29T00:19:19;8.60;99.90
18139;DHT22;9195;53.176;9.486;2022-12-29T00:22:03;8.60;99.90
18139;DHT22;9195;53.176;9.486;2022-12-29T00:24:47;8.70;99.90
18139;DHT22;9195;53.176;9.486;2022-12-29T00:27:31;8.70;99.90
18139;DHT22;9195;53.176;9.486;2022-12-29T00:30:18;8.70;99.90
18139;DHT22;9195;53.176;9.486;2022-12-29T00:33:12;8.70;99.90
18139;DHT22;9195;53.176;9.486;2022-12-29T00:38:53;8.70;99.90
18139;DHT22;9195;53.176;9.486;2022-12-29T00:41:39;8.70;99.90
18139;DHT22;9195;53.176;9.486;2022-12-29T00:44:24;8.60;99.90
18139;DHT22;9195;53.176;9.486;2022-12-29T00:46:49;8.60;99.90
18139;DHT22;9195;53.176;9.486;2022-12-29T00:49:15;8.50;99.90
18139;DHT22;9195;53.176;9.486;2022-12-29T00:54:23;8.70;99.90
18139;DHT22;9195;53.176;9.486;2022-12-29T00:56:50;8.70;99.90
18139;DHT22;9195;53.176;9.486;2022-12-29T00:59:16;8.80;99.90
18139;DHT22;9195;53.176;9.486;2022-12-29T01:01:42;8.80;99.90
18139;DHT22;9195;53.176;9.486;2022-12-29T01:04:09;8.90;99.90
18139;DHT22;9195;53.176;9.486;2022-12-29T01:06:36;9.00;99.90
18139;DHT22;9195;53.176;9.486;2022-12-29T01:09:03;9.00;99.90
18139;DHT22;9195;53.176;9.486;2022-12-29T01:11:47;9.00;99.90
18139;DHT22;9195;53.176;9.486;2022-12-29T01:14:13;9.00;99.90
18139;DHT22;9195;53.176;9.486;2022-12-29T01:16:38;9.10;99.90
18139;DHT22;9195;53.176;9.486;2022-12-29T01:19:04;9.10;99.90
18139;DHT22;9195;53.176;9.486;2022-12-29T01:21:30;9.10;99.90
18139;DHT22;9195;53.176;9.486;2022-12-29T01:23:55;9.10;99.90
18139;DHT22;9195;53.176;9.486;2022-12-29T01:26:21;9.20;99.90
18139;DHT22;9195;53.176;9.486;2022-12-29T01:28:47;9.20;99.90
18139;DHT22;9195;53.176;9.486;2022-12-29T01:31:14;9.20;99.90
18139;DHT22;9195;53.176;9.486;2022-12-29T01:33:40;9.20;99.90
18139;DHT22;9195;53.176;9.486;2022-12-29T01:36:09;9.30;99.90
18139;DHT22;9195;53.176;9.486;2022-12-29T01:38:36;9.20;99.90
18139;DHT22;9195;53.176;9.486;2022-12-29T01:41:02;9.30;99.90
18139;DHT22;9195;53.176;9.486;2022-12-29T01:43:58;9.30;99.90
18139;DHT22;9195;53.176;9.486;2022-12-29T01:46:36;9.40;99.90
18139;DHT22;9195;53.176;9.486;2022-12-29T01:49:22;9.40;99.90
18139;DHT22;9195;53.176;9.486;2022-12-29T01:51:55;9.40;99.90
18139;DHT22;9195;53.176;9.486;2022-12-29T01:55:03;9.40;99.90
18139;DHT22;9195;53.176;9.486;2022-12-29T01:57:17;9.40;99.90
18139;DHT22;9195;53.176;9.486;2022-12-29T01:59:55;9.40;99.90
18139;DHT22;9195;53.176;9.486;2022-12-29T02:02:22;9.50;99.90
18139;DHT22;9195;53.176;9.486;2022-12-29T02:04:48;9.40;99.90
18139;DHT22;9195;53.176;9.486;2022-12-29T02:07:18;9.50;99.90
18139;DHT22;9195;53.176;9.486;2022-12-29T02:09:47;9.50;99.90
18139;DHT22;9195;53.176;9.486;2022-12-29T02:12:14;9.50;99.90
18139;DHT22;9195;53.176;9.486;2022-12-29T02:14:40;9.60;99.90
18139;DHT22;9195;53.176;9.486;2022-12-29T02:17:29;9.50;99.90
18139;DHT22;9195;53.176;9.486;2022-12-29T02:20:17;9.60;99.90
18139;DHT22;9195;53.176;9.486;2022-12-29T02:37:30;9.70;99.90
18139;DHT22;9195;53.176;9.486;2022-12-29T02:40:24;9.70;99.90
18139;DHT22;9195;53.176;9.486;2022-12-29T02:45:40;9.80;99.90
18139;DHT22;9195;53.176;9.486;2022-12-29T02:48:37;9.80;99.90
18139;DHT22;9195;53.176;9.486;2022-12-29T02:51:17;9.80;99.90
18139;DHT22;9195;53.176;9.486;2022-12-29T02:53:44;9.80;99.90
18139;DHT22;9195;53.176;9.486;2022-12-29T02:56:33;9.90;99.90
18139;DHT22;9195;53.176;9.486;2022-12-29T02:58:59;9.70;99.90
18139;DHT22;9195;53.176;9.486;2022-12-29T03:01:53;9.70;99.90
18139;DHT22;9195;53.176;9.486;2022-12-29T03:05:08;9.70;99.90
18139;DHT22;9195;53.176;9.486;2022-12-29T03:10:41;9.70;99.90
18139;DHT22;9195;53.176;9.486;2022-12-29T03:13:18;9.80;99.90
18139;DHT22;9195;53.176;9.486;2022-12-29T03:19:05;10.00;99.90
18139;DHT22;9195;53.176;9.486;2022-12-29T03:21:41;10.00;99.90
18139;DHT22;9195;53.176;9.486;2022-12-29T03:24:29;10.10;99.90
18139;DHT22;9195;53.176;9.486;2022-12-29T03:26:58;10.10;99.90
18139;DHT22;9195;53.176;9.486;2022-12-29T03:29:24;10.10;99.90
18139;DHT22;9195;53.176;9.486;2022-12-29T03:31:53;10.10;99.90
18139;DHT22;9195;53.176;9.486;2022-12-29T03:34:21;10.10;99.90
18139;DHT22;9195;53.176;9.486;2022-12-29T03:36:52;10.10;99.90
18139;DHT22;9195;53.176;9.486;2022-12-29T03:39:20;10.10;99.90
18139;DHT22;9195;53.176;9.486;2022-12-29T03:41:50;10.10;99.90
18139;DHT22;9195;53.176;9.486;2022-12-29T03:44:16;10.10;99.90
18139;DHT22;9195;53.176;9.486;2022-12-29T03:46:42;10.10;99.90
18139;DHT22;9195;53.176;9.486;2022-12-29T03:49:07;10.20;99.90
18139;DHT22;9195;53.176;9.486;2022-12-29T03:51:33;10.20;99.90
18139;DHT22;9195;53.176;9.486;2022-12-29T03:53:59;10.20;99.90
18139;DHT22;9195;53.176;9.486;2022-12-29T03:56:24;10.30;99.90
18139;DHT22;9195;53.176;9.486;2022-12-29T03:58:50;10.30;99.90
18139;DHT22;9195;53.176;9.486;2022-12-29T04:01:15;10.30;99.90
18139;DHT22;9195;53.176;9.486;2022-12-29T04:03:41;10.30;99.90
18139;DHT22;9195;53.176;9.486;2022-12-29T04:06:06;10.30;99.90
18139;DHT22;9195;53.176;9.486;2022-12-29T04:08:33;10.30;99.90
18139;DHT22;9195;53.176;9.486;2022-12-29T04:10:58;10.30;99.90
18139;DHT22;9195;53.176;9.486;2022-12-29T04:13:24;10.30;99.90
18139;DHT22;9195;53.176;9.486;2022-12-29T04:15:49;10.20;99.90
18139;DHT22;9195;53.176;9.486;2022-12-29T04:18:15;10.20;99.90
18139;DHT22;9195;53.176;9.486;2022-12-29T04:20:41;10.10;99.90
18139;DHT22;9195;53.176;9.486;2022-12-29T04:23:26;10.10;99.90
18139;DHT22;9195;53.176;9.486;2022-12-29T04:25:52;10.10;99.90
18139;DHT22;9195;53.176;9.486;2022-12-29T04:28:18;10.00;99.90
18139;DHT22;9195;53.176;9.486;2022-12-29T04:30:44;10.00;99.90
18139;DHT22;9195;53.176;9.486;2022-12-29T04:33:10;10.00;99.90
18139;DHT22;9195;53.176;9.486;2022-12-29T04:35:36;10.00;99.90
18139;DHT22;9195;53.176;9.486;2022-12-29T04:38:02;10.00;99.90
18139;DHT22;9195;53.176;9.486;2022-12-29T04:40:28;9.90;99.90
18139;DHT22;9195;53.176;9.486;2022-12-29T04:42:53;9.90;99.90
18139;DHT22;9195;53.176;9.486;2022-12-29T04:45:19;10.00;99.90
18139;DHT22;9195;53.176;9.486;2022-12-29T04:47:45;10.00;99.90
18139;DHT22;9195;53.176;9.486;2022-12-29T04:50:11;10.00;99.90
18139;DHT22;9195;53.176;9.486;2022-12-29T04:52:36;10.00;99.90
18139;DHT22;9195;53.176;9.486;2022-12-29T04:55:02;10.00;99.90
18139;DHT22;9195;53.176;9.486;2022-12-29T04:57:28;10.10;99.90
18139;DHT22;9195;53.176;9.486;2022-12-29T04:59:53;10.10;99.90
18139;DHT22;9195;53.176;9.486;2022-12-29T05:02:19;10.10;99.90
18139;DHT22;9195;53.176;9.486;2022-12-29T05:04:45;10.10;99.90
18139;DHT22;9195;53.176;9.486;2022-12-29T05:07:12;10.10;99.90
18139;DHT22;9195;53.176;9.486;2022-12-29T05:09:38;10.10;99.90
18139;DHT22;9195;53.176;9.486;2022-12-29T05:12:03;10.10;99.90
18139;DHT22;9195;53.176;9.486;2022-12-29T05:14:29;10.10;99.90
18139;DHT22;9195;53.176;9.486;2022-12-29T05:16:54;10.20;99.90
18139;DHT22;9195;53.176;9.486;2022-12-29T05:19:20;10.20;99.90
18139;DHT22;9195;53.176;9.486;2022-12-29T05:21:46;10.10;99.90
18139;DHT22;9195;53.176;9.486;2022-12-29T05:24:11;10.20;99.90
18139;DHT22;9195;53.176;9.486;2022-12-29T05:26:37;10.10;99.90
18139;DHT22;9195;53.176;9.486;2022-12-29T05:29:03;10.20;99.90
18139;DHT22;9195;53.176;9.486;2022-12-29T05:31:28;10.20;99.90
18139;DHT22;9195;53.176;9.486;2022-12-29T05:33:54;10.20;99.90
18139;DHT22;9195;53.176;9.486;2022-12-29T05:36:19;10.20;99.90
18139;DHT22;9195;53.176;9.486;2022-12-29T05:38:45;10.20;99.90
18139;DHT22;9195;53.176;9.486;2022-12-29T05:41:11;10.30;99.90
18139;DHT22;9195;53.176;9.486;2022-12-29T05:43:36;10.10;99.90
18139;DHT22;9195;53.176;9.486;2022-12-29T05:46:02;10.00;99.90
18139;DHT22;9195;53.176;9.486;2022-12-29T05:48:28;9.90;99.90
18139;DHT22;9195;53.176;9.486;2022-12-29T05:50:53;10.00;99.90
18139;DHT22;9195;53.176;9.486;2022-12-29T05:53:19;9.90;99.90
18139;DHT22;9195;53.176;9.486;2022-12-29T05:55:48;10.00;99.90
18139;DHT22;9195;53.176;9.486;2022-12-29T05:58:15;10.00;99.90
18139;DHT22;9195;53.176;9.486;2022-12-29T06:00:41;10.00;99.90
18139;DHT22;9195;53.176;9.486;2022-12-29T06:03:06;10.00;99.90
18139;DHT22;9195;53.176;9.486;2022-12-29T06:05:32;10.00;99.90
18139;DHT22;9195;53.176;9.486;2022-12-29T06:07:57;10.00;99.90
18139;DHT22;9195;53.176;9.486;2022-12-29T06:10:23;10.00;99.90
18139;DHT22;9195;53.176;9.486;2022-12-29T06:12:49;10.10;99.90
18139;DHT22;9195;53.176;9.486;2022-12-29T06:15:14;10.10;99.90
18139;DHT22;9195;53.176;9.486;2022-12-29T06:17:40;10.00;99.90
18139;DHT22;9195;53.176;9.486;2022-12-29T06:20:07;9.90;99.90
18139;DHT22;9195;53.176;9.486;2022-12-29T06:22:33;10.00;99.90
18139;DHT22;9195;53.176;9.486;2022-12-29T06:24:59;10.10;99.90
18139;DHT22;9195;53.176;9.486;2022-12-29T06:27:25;10.10;99.90
18139;DHT22;9195;53.176;9.486;2022-12-29T06:29:51;10.00;99.90
18139;DHT22;9195;53.176;9.486;2022-12-29T06:32:16;10.10;99.90
18139;DHT22;9195;53.176;9.486;2022-12-29T06:34:42;10.10;99.90
18139;DHT22;9195;53.176;9.486;2022-12-29T06:37:07;10.10;99.90
18139;DHT22;9195;53.176;9.486;2022-12-29T06:39:33;10.00;99.90
18139;DHT22;9195;53.176;9.486;2022-12-29T06:41:58;10.30;99.90
18139;DHT22;9195;53.176;9.486;2022-12-29T06:44:24;10.00;99.90
18139;DHT22;9195;53.176;9.486;2022-12-29T06:46:50;10.70;99.90
18139;DHT22;9195;53.176;9.486;2022-12-29T06:49:16;11.20;99.90
18139;DHT22;9195;53.176;9.486;2022-12-29T06:51:41;11.20;99.90
18139;DHT22;9195;53.176;9.486;2022-12-29T06:54:07;10.80;99.90
18139;DHT22;9195;53.176;9.486;2022-12-29T06:56:33;10.90;99.90
18139;DHT22;9195;53.176;9.486;2022-12-29T06:58:58;11.30;99.90
18139;DHT22;9195;53.176;9.486;2022-12-29T07:01:26;11.10;99.90
18139;DHT22;9195;53.176;9.486;2022-12-29T07:03:51;11.30;99.90
18139;DHT22;9195;53.176;9.486;2022-12-29T07:06:17;11.10;99.90
18139;DHT22;9195;53.176;9.486;2022-12-29T07:08:43;11.10;99.90
18139;DHT22;9195;53.176;9.486;2022-12-29T07:11:08;11.20;99.90
18139;DHT22;9195;53.176;9.486;2022-12-29T07:13:34;11.10;99.90
18139;DHT22;9195;53.176;9.486;2022-12-29T07:16:05;11.10;99.90
18139;DHT22;9195;53.176;9.486;2022-12-29T07:18:31;11.10;99.90
18139;DHT22;9195;53.176;9.486;2022-12-29T07:20:56;10.80;99.90
18139;DHT22;9195;53.176;9.486;2022-12-29T07:23:22;10.70;99.90
18139;DHT22;9195;53.176;9.486;2022-12-29T07:25:48;10.80;99.90
18139;DHT22;9195;53.176;9.486;2022-12-29T07:28:14;10.80;99.90
18139;DHT22;9195;53.176;9.486;2022-12-29T07:30:39;10.80;99.90
18139;DHT22;9195;53.176;9.486;2022-12-29T07:33:05;10.60;99.90
18139;DHT22;9195;53.176;9.486;2022-12-29T07:35:30;10.70;99.90
18139;DHT22;9195;53.176;9.486;2022-12-29T07:37:56;10.60;99.90
18139;DHT22;9195;53.176;9.486;2022-12-29T07:40:21;10.50;99.90
18139;DHT22;9195;53.176;9.486;2022-12-29T07:42:47;10.60;99.90
18139;DHT22;9195;53.176;9.486;2022-12-29T07:45:13;10.50;99.90
18139;DHT22;9195;53.176;9.486;2022-12-29T07:47:38;10.50;99.90
18139;DHT22;9195;53.176;9.486;2022-12-29T07:50:04;10.40;99.90
18139;DHT22;9195;53.176;9.486;2022-12-29T07:52:30;10.30;99.90
18139;DHT22;9195;53.176;9.486;2022-12-29T07:54:56;10.00;99.90
18139;DHT22;9195;53.176;9.486;2022-12-29T07:57:21;10.10;99.90
18139;DHT22;9195;53.176;9.486;2022-12-29T07:59:47;9.90;99.90
18139;DHT22;9195;53.176;9.486;2022-12-29T08:02:12;10.00;99.90
18139;DHT22;9195;53.176;9.486;2022-12-29T08:04:38;9.80;99.90
18139;DHT22;9195;53.176;9.486;2022-12-29T08:07:03;9.70;99.90
18139;DHT22;9195;53.176;9.486;2022-12-29T08:09:29;9.90;99.90
18139;DHT22;9195;53.176;9.486;2022-12-29T08:11:54;9.80;99.90
18139;DHT22;9195;53.176;9.486;2022-12-29T08:14:20;10.10;99.90
18139;DHT22;9195;53.176;9.486;2022-12-29T08:16:46;10.00;99.90
18139;DHT22;9195;53.176;9.486;2022-12-29T08:19:12;9.90;99.90
18139;DHT22;9195;53.176;9.486;2022-12-29T08:21:38;9.90;99.90
18139;DHT22;9195;53.176;9.486;2022-12-29T08:24:05;10.20;99.90
18139;DHT22;9195;53.176;9.486;2022-12-29T08:26:31;9.90;99.90
18139;DHT22;9195;53.176;9.486;2022-12-29T08:28:56;9.80;99.90
18139;DHT22;9195;53.176;9.486;2022-12-29T08:31:23;9.90;99.90
18139;DHT22;9195;53.176;9.486;2022-12-29T08:33:49;9.90;99.90
18139;DHT22;9195;53.176;9.486;2022-12-29T08:36:14;9.80;99.90
18139;DHT22;9195;53.176;9.486;2022-12-29T08:38:40;9.60;99.90
18139;DHT22;9195;53.176;9.486;2022-12-29T08:41:06;9.70;99.90
18139;DHT22;9195;53.176;9.486;2022-12-29T08:43:31;9.80;99.90
18139;DHT22;9195;53.176;9.486;2022-12-29T08:45:58;9.60;99.90
18139;DHT22;9195;53.176;9.486;2022-12-29T08:48:24;9.70;99.90
18139;DHT22;9195;53.176;9.486;2022-12-29T08:50:50;9.60;99.90
18139;DHT22;9195;53.176;9.486;2022-12-29T08:53:16;9.60;99.90
18139;DHT22;9195;53.176;9.486;2022-12-29T08:55:45;9.60;99.90
18139;DHT22;9195;53.176;9.486;2022-12-29T08:58:11;9.40;99.90
18139;DHT22;9195;53.176;9.486;2022-12-29T09:00:40;9.80;99.90
18139;DHT22;9195;53.176;9.486;2022-12-29T09:03:06;10.10;99.90
18139;DHT22;9195;53.176;9.486;2022-12-29T09:05:31;10.00;99.90
18139;DHT22;9195;53.176;9.486;2022-12-29T09:07:57;10.10;99.90
18139;DHT22;9195;53.176;9.486;2022-12-29T09:10:22;10.20;99.90
18139;DHT22;9195;53.176;9.486;2022-12-29T09:12:49;10.30;99.90
18139;DHT22;9195;53.176;9.486;2022-12-29T09:15:14;10.40;99.90
18139;DHT22;9195;53.176;9.486;2022-12-29T09:17:41;10.60;99.90
18139;DHT22;9195;53.176;9.486;2022-12-29T09:20:13;10.70;99.90
18139;DHT22;9195;53.176;9.486;2022-12-29T09:22:40;10.80;99.90
18139;DHT22;9195;53.176;9.486;2022-12-29T09:25:06;10.70;99.90
18139;DHT22;9195;53.176;9.486;2022-12-29T09:27:32;11.10;99.90
18139;DHT22;9195;53.176;9.486;2022-12-29T09:29:57;11.20;99.90
18139;DHT22;9195;53.176;9.486;2022-12-29T09:32:23;11.30;99.90
18139;DHT22;9195;53.176;9.486;2022-12-29T09:34:49;11.00;99.90
18139;DHT22;9195;53.176;9.486;2022-12-29T09:37:14;10.70;99.90
18139;DHT22;9195;53.176;9.486;2022-12-29T09:39:40;10.70;99.90
18139;DHT22;9195;53.176;9.486;2022-12-29T09:42:38;10.90;99.90
18139;DHT22;9195;53.176;9.486;2022-12-29T09:45:16;11.40;99.90
18139;DHT22;9195;53.176;9.486;2022-12-29T09:47:44;11.60;99.90
18139;DHT22;9195;53.176;9.486;2022-12-29T09:50:32;11.50;99.90
18139;DHT22;9195;53.176;9.486;2022-12-29T09:55:46;12.00;99.90
18139;DHT22;9195;53.176;9.486;2022-12-29T09:58:35;11.60;99.90
18139;DHT22;9195;53.176;9.486;2022-12-29T10:03:54;11.60;99.90
18139;DHT22;9195;53.176;9.486;2022-12-29T10:06:34;11.10;99.90
18139;DHT22;9195;53.176;9.486;2022-12-29T10:25:24;10.60;99.90
18139;DHT22;9195;53.176;9.486;2022-12-29T10:27:51;10.40;99.90
18139;DHT22;9195;53.176;9.486;2022-12-29T10:30:19;9.90;99.90
18139;DHT22;9195;53.176;9.486;2022-12-29T10:32:51;9.90;99.90
18139;DHT22;9195;53.176;9.486;2022-12-29T10:35:24;9.90;99.90
18139;DHT22;9195;53.176;9.486;2022-12-29T10:38:01;9.90;99.90
18139;DHT22;9195;53.176;9.486;2022-12-29T10:40:42;9.70;99.90
18139;DHT22;9195;53.176;9.486;2022-12-29T10:43:31;9.70;99.90
18139;DHT22;9195;53.176;9.486;2022-12-29T10:46:05;9.80;99.90
18139;DHT22;9195;53.176;9.486;2022-12-29T10:48:33;9.80;99.90
18139;DHT22;9195;53.176;9.486;2022-12-29T10:51:02;10.10;99.90
18139;DHT22;9195;53.176;9.486;2022-12-29T10:53:45;10.00;99.90
18139;DHT22;9195;53.176;9.486;2022-12-29T10:56:25;9.80;99.90
18139;DHT22;9195;53.176;9.486;2022-12-29T10:58:55;9.50;99.90
18139;DHT22;9195;53.176;9.486;2022-12-29T11:01:22;9.30;99.90
18139;DHT22;9195;53.176;9.486;2022-12-29T11:06:33;10.20;99.90
18139;DHT22;9195;53.176;9.486;2022-12-29T11:09:15;10.90;99.90
18139;DHT22;9195;53.176;9.486;2022-12-29T11:11:41;10.40;99.90
18139;DHT22;9195;53.176;9.486;2022-12-29T11:14:13;10.30;99.90
18139;DHT22;9195;53.176;9.486;2022-12-29T11:16:39;10.20;99.90
18139;DHT22;9195;53.176;9.486;2022-12-29T11:19:23;10.20;99.90
18139;DHT22;9195;53.176;9.486;2022-12-29T11:21:48;10.30;99.90
18139;DHT22;9195;53.176;9.486;2022-12-29T11:24:28;10.20;99.90
18139;DHT22;9195;53.176;9.486;2022-12-29T11:26:56;10.40;99.90
18139;DHT22;9195;53.176;9.486;2022-12-29T11:29:38;10.20;99.90
18139;DHT22;9195;53.176;9.486;2022-12-29T11:34:43;10.70;99.90
18139;DHT22;9195;53.176;9.486;2022-12-29T11:37:18;11.10;99.90
18139;DHT22;9195;53.176;9.486;2022-12-29T11:40:02;11.40;99.90
18139;DHT22;9195;53.176;9.486;2022-12-29T11:47:43;12.50;99.90
18139;DHT22;9195;53.176;9.486;2022-12-29T11:50:21;12.00;99.90
18139;DHT22;9195;53.176;9.486;2022-12-29T11:52:50;10.60;99.90
18139;DHT22;9195;53.176;9.486;2022-12-29T11:55:21;10.70;99.90
18139;DHT22;9195;53.176;9.486;2022-12-29T11:57:50;10.10;99.90
18139;DHT22;9195;53.176;9.486;2022-12-29T12:00:19;10.10;99.90
18139;DHT22;9195;53.176;9.486;2022-12-29T12:05:30;10.10;99.90
18139;DHT22;9195;53.176;9.486;2022-12-29T12:11:04;10.20;99.90
18139;DHT22;9195;53.176;9.486;2022-12-29T12:14:14;10.40;99.90
18139;DHT22;9195;53.176;9.486;2022-12-29T12:16:46;10.50;99.90
18139;DHT22;9195;53.176;9.486;2022-12-29T12:19:40;10.50;99.90
18139;DHT22;9195;53.176;9.486;2022-12-29T12:22:29;10.50;99.90
18139;DHT22;9195;53.176;9.486;2022-12-29T12:25:12;10.50;99.90
18139;DHT22;9195;53.176;9.486;2022-12-29T12:27:57;10.50;99.90
18139;DHT22;9195;53.176;9.486;2022-12-29T12:30:28;10.50;99.90
18139;DHT22;9195;53.176;9.486;2022-12-29T12:33:04;10.50;99.90
18139;DHT22;9195;53.176;9.486;2022-12-29T12:38:54;10.70;99.90
18139;DHT22;9195;53.176;9.486;2022-12-29T12:54:36;10.70;99.90
18139;DHT22;9195;53.176;9.486;2022-12-29T12:57:27;10.70;99.90
18139;DHT22;9195;53.176;9.486;2022-12-29T13:00:17;10.80;99.90
18139;DHT22;9195;53.176;9.486;2022-12-29T13:03:08;11.00;99.90
18139;DHT22;9195;53.176;9.486;2022-12-29T13:05:50;11.20;99.90
18139;DHT22;9195;53.176;9.486;2022-12-29T13:10:54;11.20;99.90
18139;DHT22;9195;53.176;9.486;2022-12-29T13:16:12;11.20;99.90
18139;DHT22;9195;53.176;9.486;2022-12-29T13:21:39;10.80;99.90
18139;DHT22;9195;53.176;9.486;2022-12-29T13:38:09;10.70;99.90
18139;DHT22;9195;53.176;9.486;2022-12-29T13:40:40;10.60;99.90
18139;DHT22;9195;53.176;9.486;2022-12-29T13:43:07;10.50;99.90
18139;DHT22;9195;53.176;9.486;2022-12-29T13:45:34;10.30;99.90
18139;DHT22;9195;53.176;9.486;2022-12-29T13:48:08;10.10;99.90
18139;DHT22;9195;53.176;9.486;2022-12-29T13:50:38;9.40;99.90
18139;DHT22;9195;53.176;9.486;2022-12-29T13:53:19;9.20;99.90
18139;DHT22;9195;53.176;9.486;2022-12-29T13:55:58;9.20;99.90
18139;DHT22;9195;53.176;9.486;2022-12-29T14:01:46;9.10;99.90
18139;DHT22;9195;53.176;9.486;2022-12-29T14:04:22;8.90;99.90
18139;DHT22;9195;53.176;9.486;2022-12-29T14:07:05;8.70;99.90
18139;DHT22;9195;53.176;9.486;2022-12-29T14:09:46;8.80;99.90
18139;DHT22;9195;53.176;9.486;2022-12-29T14:15:19;8.80;99.90
18139;DHT22;9195;53.176;9.486;2022-12-29T14:18:04;8.80;99.90
18139;DHT22;9195;53.176;9.486;2022-12-29T14:20:31;8.70;99.90
18139;DHT22;9195;53.176;9.486;2022-12-29T14:23:41;8.70;99.90
18139;DHT22;9195;53.176;9.486;2022-12-29T14:26:09;8.70;99.90
18139;DHT22;9195;53.176;9.486;2022-12-29T14:28:40;8.80;99.90
18139;DHT22;9195;53.176;9.486;2022-12-29T14:36:35;9.20;99.90
18139;DHT22;9195;53.176;9.486;2022-12-29T14:39:02;9.40;99.90
18139;DHT22;9195;53.176;9.486;2022-12-29T14:41:59;9.60;99.90
18139;DHT22;9195;53.176;9.486;2022-12-29T14:44:25;9.20;99.90
18139;DHT22;9195;53.176;9.486;2022-12-29T14:49:21;8.80;99.90
18139;DHT22;9195;53.176;9.486;2022-12-29T14:51:50;8.60;99.90
18139;DHT22;9195;53.176;9.486;2022-12-29T14:57:04;8.50;99.90
18139;DHT22;9195;53.176;9.486;2022-12-29T14:59:32;8.40;99.90
18139;DHT22;9195;53.176;9.486;2022-12-29T15:02:04;8.50;99.90
18139;DHT22;9195;53.176;9.486;2022-12-29T15:04:38;8.50;99.90
18139;DHT22;9195;53.176;9.486;2022-12-29T15:07:08;8.50;99.90
18139;DHT22;9195;53.176;9.486;2022-12-29T15:09:38;8.50;99.90
18139;DHT22;9195;53.176;9.486;2022-12-29T15:12:15;8.50;99.90
18139;DHT22;9195;53.176;9.486;2022-12-29T15:14:54;8.50;99.90
18139;DHT22;9195;53.176;9.486;2022-12-29T15:17:33;8.60;99.90
18139;DHT22;9195;53.176;9.486;2022-12-29T15:20:24;8.60;99.90
18139;DHT22;9195;53.176;9.486;2022-12-29T15:23:10;8.60;99.90
18139;DHT22;9195;53.176;9.486;2022-12-29T15:25:36;8.60;99.90
18139;DHT22;9195;53.176;9.486;2022-12-29T15:28:12;8.70;99.90
18139;DHT22;9195;53.176;9.486;2022-12-29T15:30:52;8.70;99.90
18139;DHT22;9195;53.176;9.486;2022-12-29T15:33:20;8.70;99.90
18139;DHT22;9195;53.176;9.486;2022-12-29T15:35:50;8.70;99.90
18139;DHT22;9195;53.176;9.486;2022-12-29T15:38:21;8.70;99.90
18139;DHT22;9195;53.176;9.486;2022-12-29T15:40:52;8.70;99.90
18139;DHT22;9195;53.176;9.486;2022-12-29T15:45:55;8.70;99.90
18139;DHT22;9195;53.176;9.486;2022-12-29T15:48:24;8.70;99.90
18139;DHT22;9195;53.176;9.486;2022-12-29T15:50:50;8.70;99.90
18139;DHT22;9195;53.176;9.486;2022-12-29T15:53:32;8.70;99.90
18139;DHT22;9195;53.176;9.486;2022-12-29T15:56:06;8.80;99.90
18139;DHT22;9195;53.176;9.486;2022-12-29T15:58:44;8.80;99.90
18139;DHT22;9195;53.176;9.486;2022-12-29T16:01:34;8.80;99.90
18139;DHT22;9195;53.176;9.486;2022-12-29T16:04:08;8.80;99.90
18139;DHT22;9195;53.176;9.486;2022-12-29T16:06:35;8.80;99.90
18139;DHT22;9195;53.176;9.486;2022-12-29T16:09:15;8.80;99.90
18139;DHT22;9195;53.176;9.486;2022-12-29T16:11:53;8.80;99.90
18139;DHT22;9195;53.176;9.486;2022-12-29T16:14:41;8.90;99.90
18139;DHT22;9195;53.176;9.486;2022-12-29T16:17:13;8.90;99.90
18139;DHT22;9195;53.176;9.486;2022-12-29T16:19:42;8.90;99.90
18139;DHT22;9195;53.176;9.486;2022-12-29T16:22:17;8.90;99.90
18139;DHT22;9195;53.176;9.486;2022-12-29T16:24:46;8.90;99.90
18139;DHT22;9195;53.176;9.486;2022-12-29T16:27:36;8.90;99.90
18139;DHT22;9195;53.176;9.486;2022-12-29T16:33:02;8.70;99.90
18139;DHT22;9195;53.176;9.486;2022-12-29T16:35:48;8.60;99.90
18139;DHT22;9195;53.176;9.486;2022-12-29T16:41:05;8.40;99.90
18139;DHT22;9195;53.176;9.486;2022-12-29T16:43:33;8.30;99.90
18139;DHT22;9195;53.176;9.486;2022-12-29T16:48:36;8.10;99.90
18139;DHT22;9195;53.176;9.486;2022-12-29T16:51:35;8.10;99.90
18139;DHT22;9195;53.176;9.486;2022-12-29T16:54:02;8.00;99.90
18139;DHT22;9195;53.176;9.486;2022-12-29T16:56:34;7.90;99.90
18139;DHT22;9195;53.176;9.486;2022-12-29T16:59:18;7.90;99.90
18139;DHT22;9195;53.176;9.486;2022-12-29T17:01:47;8.00;99.90
18139;DHT22;9195;53.176;9.486;2022-12-29T17:04:13;8.10;99.90
18139;DHT22;9195;53.176;9.486;2022-12-29T17:06:39;8.10;99.90
18139;DHT22;9195;53.176;9.486;2022-12-29T17:09:25;8.10;99.90
18139;DHT22;9195;53.176;9.486;2022-12-29T17:11:53;8.20;99.90
18139;DHT22;9195;53.176;9.486;2022-12-29T17:14:49;8.30;99.90
18139;DHT22;9195;53.176;9.486;2022-12-29T17:17:36;8.30;99.90
18139;DHT22;9195;53.176;9.486;2022-12-29T17:20:06;8.40;99.90
18139;DHT22;9195;53.176;9.486;2022-12-29T17:22:34;8.50;99.90
18139;DHT22;9195;53.176;9.486;2022-12-29T17:25:01;8.50;99.90
18139;DHT22;9195;53.176;9.486;2022-12-29T17:28:29;8.50;99.90
18139;DHT22;9195;53.176;9.486;2022-12-29T17:30:24;8.50;99.90
18139;DHT22;9195;53.176;9.486;2022-12-29T17:32:52;8.50;99.90
18139;DHT22;9195;53.176;9.486;2022-12-29T17:35:19;8.50;99.90
18139;DHT22;9195;53.176;9.486;2022-12-29T17:37:45;8.40;99.90
18139;DHT22;9195;53.176;9.486;2022-12-29T17:40:19;8.40;99.90
18139;DHT22;9195;53.176;9.486;2022-12-29T17:42:51;8.40;99.90
18139;DHT22;9195;53.176;9.486;2022-12-29T17:45:20;8.20;99.90
18139;DHT22;9195;53.176;9.486;2022-12-29T17:47:46;8.20;99.90
18139;DHT22;9195;53.176;9.486;2022-12-29T17:50:20;8.10;99.90
18139;DHT22;9195;53.176;9.486;2022-12-29T17:53:09;8.20;99.90
18139;DHT22;9195;53.176;9.486;2022-12-29T17:55:35;8.20;99.90
18139;DHT22;9195;53.176;9.486;2022-12-29T17:58:01;8.30;99.90
18139;DHT22;9195;53.176;9.486;2022-12-29T18:00:29;8.10;99.90
18139;DHT22;9195;53.176;9.486;2022-12-29T18:02:58;8.10;99.90
18139;DHT22;9195;53.176;9.486;2022-12-29T18:05:27;8.10;99.90
18139;DHT22;9195;53.176;9.486;2022-12-29T18:07:56;8.10;99.90
18139;DHT22;9195;53.176;9.486;2022-12-29T18:10:23;8.10;99.90
18139;DHT22;9195;53.176;9.486;2022-12-29T18:12:51;8.10;99.90
18139;DHT22;9195;53.176;9.486;2022-12-29T18:15:25;8.20;99.90
18139;DHT22;9195;53.176;9.486;2022-12-29T18:17:59;8.30;99.90
18139;DHT22;9195;53.176;9.486;2022-12-29T18:20:26;8.40;99.90
18139;DHT22;9195;53.176;9.486;2022-12-29T18:22:52;8.40;99.90
18139;DHT22;9195;53.176;9.486;2022-12-29T18:25:28;8.50;99.90
18139;DHT22;9195;53.176;9.486;2022-12-29T18:27:55;8.60;99.90
18139;DHT22;9195;53.176;9.486;2022-12-29T18:30:20;8.60;99.90
18139;DHT22;9195;53.176;9.486;2022-12-29T18:32:46;8.70;99.90
18139;DHT22;9195;53.176;9.486;2022-12-29T18:35:16;8.80;99.90